sensor_id;sensor_type;location;lat;lon;timestamp;pressure;altitude;pressure_sealevel;temperature;humidity
50430;BME280;36359;41.556;-8.418;2023-04-21T00:01:31;99354.72;;;15.14;73.56
50430;BME280;36359;41.556;-8.418;2023-04-21T00:03:57;99348.97;;;14.96;73.71
50430;BME280;36359;41.556;-8.418;2023-04-21T00:06:23;99350.31;;;15.13;75.44
50430;BME280;36359;41.556;-8.418;2023-04-21T00:08:51;99351.19;;;15.20;76.17
50430;BME280;36359;41.556;-8.418;2023-04-21T00:11:17;99348.13;;;14.95;73.03
50430;BME280;36359;41.556;-8.418;2023-04-21T00:13:43;99343.50;;;14.96;72.86
50430;BME280;36359;41.556;-8.418;2023-04-21T00:16:09;99346.69;;;14.99;72.68
50430;BME280;36359;41.556;-8.418;2023-04-21T00:18:35;99330.94;;;15.02;72.55
50430;BME280;36359;41.556;-8.418;2023-04-21T00:21:01;99325.22;;;14.96;71.85
50430;BME280;36359;41.556;-8.418;2023-04-21T00:23:26;99331.41;;;15.12;73.44
50430;BME280;36359;41.556;-8.418;2023-04-21T00:25:52;99328.59;;;14.92;72.36
50430;BME280;36359;41.556;-8.418;2023-04-21T00:28:18;99331.22;;;14.79;73.27
50430;BME280;36359;41.556;-8.418;2023-04-21T00:30:43;99327.06;;;14.83;75.22
50430;BME280;36359;41.556;-8.418;2023-04-21T00:33:09;99322.19;;;14.50;74.13
50430;BME280;36359;41.556;-8.418;2023-04-21T00:35:35;99314.59;;;14.73;73.50
50430;BME280;36359;41.556;-8.418;2023-04-21T00:38:00;99313.41;;;14.83;74.85
50430;BME280;36359;41.556;-8.418;2023-04-21T00:40:26;99312.06;;;15.13;74.26
50430;BME280;36359;41.556;-8.418;2023-04-21T00:42:52;99315.63;;;15.14;73.71
50430;BME280;36359;41.556;-8.418;2023-04-21T00:45:18;99313.94;;;15.06;74.50
50430;BME280;36359;41.556;-8.418;2023-04-21T00:47:44;99310.69;;;14.83;73.74
50430;BME280;36359;41.556;-8.418;2023-04-21T00:50:10;99310.53;;;14.56;74.56
50430;BME280;36359;41.556;-8.418;2023-04-21T00:52:38;99311.25;;;14.43;74.91
50430;BME280;36359;41.556;-8.418;2023-04-21T00:55:07;99307.59;;;14.58;74.63
50430;BME280;36359;41.556;-8.418;2023-04-21T00:57:35;99311.47;;;14.42;74.99
50430;BME280;36359;41.556;-8.418;2023-04-21T01:00:01;99299.28;;;14.16;75.79
50430;BME280;36359;41.556;-8.418;2023-04-21T01:02:29;99296.50;;;14.38;78.41
50430;BME280;36359;41.556;-8.418;2023-04-21T01:04:54;99301.78;;;14.11;76.17
50430;BME280;36359;41.556;-8.418;2023-04-21T01:07:20;99298.69;;;13.93;76.40
50430;BME280;36359;41.556;-8.418;2023-04-21T01:09:46;99294.03;;;13.86;78.05
50430;BME280;36359;41.556;-8.418;2023-04-21T01:12:11;99283.50;;;13.83;77.60
50430;BME280;36359;41.556;-8.418;2023-04-21T01:14:39;99283.38;;;13.92;77.82
50430;BME280;36359;41.556;-8.418;2023-04-21T01:17:05;99272.97;;;14.02;79.66
50430;BME280;36359;41.556;-8.418;2023-04-21T01:19:35;99264.69;;;13.89;79.34
50430;BME280;36359;41.556;-8.418;2023-04-21T01:31:34;99255.25;;;14.19;78.48
50430;BME280;36359;41.556;-8.418;2023-04-21T01:34:03;99240.25;;;14.37;76.62
50430;BME280;36359;41.556;-8.418;2023-04-21T01:36:29;99243.75;;;14.24;75.41
50430;BME280;36359;41.556;-8.418;2023-04-21T01:38:55;99242.41;;;14.13;76.15
50430;BME280;36359;41.556;-8.418;2023-04-21T01:41:21;99238.50;;;14.29;78.94
50430;BME280;36359;41.556;-8.418;2023-04-21T01:43:47;99237.31;;;14.38;78.97
50430;BME280;36359;41.556;-8.418;2023-04-21T01:46:12;99227.56;;;14.22;79.06
50430;BME280;36359;41.556;-8.418;2023-04-21T01:48:38;99223.72;;;14.45;76.06
50430;BME280;36359;41.556;-8.418;2023-04-21T01:51:04;99219.19;;;14.24;75.21
50430;BME280;36359;41.556;-8.418;2023-04-21T01:53:30;99236.69;;;14.08;76.16
50430;BME280;36359;41.556;-8.418;2023-04-21T01:55:56;99221.13;;;14.02;77.83
50430;BME280;36359;41.556;-8.418;2023-04-21T01:58:22;99217.50;;;13.67;77.50
50430;BME280;36359;41.556;-8.418;2023-04-21T02:00:48;99214.22;;;13.50;78.23
50430;BME280;36359;41.556;-8.418;2023-04-21T02:03:16;99215.00;;;13.65;81.50
50430;BME280;36359;41.556;-8.418;2023-04-21T02:05:44;99202.59;;;13.41;78.76
50430;BME280;36359;41.556;-8.418;2023-04-21T02:08:10;99200.97;;;13.68;81.30
50430;BME280;36359;41.556;-8.418;2023-04-21T02:10:36;99204.13;;;14.00;80.64
50430;BME280;36359;41.556;-8.418;2023-04-21T02:13:01;99203.84;;;13.60;78.81
50430;BME280;36359;41.556;-8.418;2023-04-21T02:15:28;99206.03;;;13.71;79.51
50430;BME280;36359;41.556;-8.418;2023-04-21T02:17:54;99198.16;;;13.61;79.10
50430;BME280;36359;41.556;-8.418;2023-04-21T02:20:19;99198.34;;;13.32;79.10
50430;BME280;36359;41.556;-8.418;2023-04-21T02:22:45;99198.72;;;13.29;81.91
50430;BME280;36359;41.556;-8.418;2023-04-21T02:25:11;99198.13;;;13.55;80.14
50430;BME280;36359;41.556;-8.418;2023-04-21T02:27:37;99190.59;;;13.85;81.43
50430;BME280;36359;41.556;-8.418;2023-04-21T02:30:03;99186.81;;;13.58;79.17
50430;BME280;36359;41.556;-8.418;2023-04-21T02:32:29;99184.44;;;13.48;78.99
50430;BME280;36359;41.556;-8.418;2023-04-21T02:34:55;99185.75;;;13.09;80.33
50430;BME280;36359;41.556;-8.418;2023-04-21T02:37:22;99186.72;;;13.45;80.06
50430;BME280;36359;41.556;-8.418;2023-04-21T02:39:51;99178.72;;;13.93;82.37
50430;BME280;36359;41.556;-8.418;2023-04-21T02:42:17;99180.75;;;13.84;81.26
50430;BME280;36359;41.556;-8.418;2023-04-21T02:44:43;99174.28;;;13.63;79.71
50430;BME280;36359;41.556;-8.418;2023-04-21T02:47:08;99181.84;;;13.18;80.39
50430;BME280;36359;41.556;-8.418;2023-04-21T02:49:39;99184.75;;;13.17;80.46
50430;BME280;36359;41.556;-8.418;2023-04-21T02:52:05;99177.81;;;13.14;83.64
50430;BME280;36359;41.556;-8.418;2023-04-21T02:54:31;99189.06;;;13.48;82.61
50430;BME280;36359;41.556;-8.418;2023-04-21T02:56:56;99186.59;;;13.31;80.20
50430;BME280;36359;41.556;-8.418;2023-04-21T02:59:22;99189.56;;;13.15;80.97
50430;BME280;36359;41.556;-8.418;2023-04-21T03:01:48;99182.78;;;13.26;80.13
50430;BME280;36359;41.556;-8.418;2023-04-21T03:04:13;99174.13;;;13.22;80.64
50430;BME280;36359;41.556;-8.418;2023-04-21T03:06:39;99182.81;;;13.11;83.73
50430;BME280;36359;41.556;-8.418;2023-04-21T03:09:05;99180.75;;;13.13;81.47
50430;BME280;36359;41.556;-8.418;2023-04-21T03:11:31;99177.81;;;12.93;81.88
50430;BME280;36359;41.556;-8.418;2023-04-21T03:13:57;99177.69;;;13.23;82.38
50430;BME280;36359;41.556;-8.418;2023-04-21T03:16:22;99165.94;;;13.22;81.41
50430;BME280;36359;41.556;-8.418;2023-04-21T03:18:48;99168.97;;;13.27;83.58
50430;BME280;36359;41.556;-8.418;2023-04-21T03:21:14;99158.81;;;13.21;81.06
50430;BME280;36359;41.556;-8.418;2023-04-21T03:23:40;99157.63;;;12.87;80.78
50430;BME280;36359;41.556;-8.418;2023-04-21T03:26:07;99159.34;;;12.88;84.40
50430;BME280;36359;41.556;-8.418;2023-04-21T03:28:33;99159.25;;;12.82;82.14
50430;BME280;36359;41.556;-8.418;2023-04-21T03:31:01;99153.63;;;13.05;81.65
50430;BME280;36359;41.556;-8.418;2023-04-21T03:33:27;99156.22;;;13.13;79.88
50430;BME280;36359;41.556;-8.418;2023-04-21T03:35:53;99159.41;;;13.16;79.59
50430;BME280;36359;41.556;-8.418;2023-04-21T03:38:18;99151.19;;;13.10;81.12
50430;BME280;36359;41.556;-8.418;2023-04-21T03:40:44;99157.78;;;13.01;80.68
50430;BME280;36359;41.556;-8.418;2023-04-21T03:43:10;99156.72;;;13.23;83.61
50430;BME280;36359;41.556;-8.418;2023-04-21T03:45:37;99156.09;;;13.00;81.39
50430;BME280;36359;41.556;-8.418;2023-04-21T03:48:03;99149.88;;;12.84;82.67
50430;BME280;36359;41.556;-8.418;2023-04-21T03:50:29;99150.78;;;12.91;81.15
50430;BME280;36359;41.556;-8.418;2023-04-21T03:52:54;99146.69;;;13.02;81.86
50430;BME280;36359;41.556;-8.418;2023-04-21T03:55:20;99142.75;;;12.83;81.75
50430;BME280;36359;41.556;-8.418;2023-04-21T03:57:46;99140.78;;;12.77;81.96
50430;BME280;36359;41.556;-8.418;2023-04-21T04:00:12;99144.41;;;12.63;84.40
50430;BME280;36359;41.556;-8.418;2023-04-21T04:02:38;99146.41;;;12.54;83.43
50430;BME280;36359;41.556;-8.418;2023-04-21T04:05:04;99144.03;;;12.87;82.33
50430;BME280;36359;41.556;-8.418;2023-04-21T04:07:33;99140.78;;;12.99;81.65
50430;BME280;36359;41.556;-8.418;2023-04-21T04:09:59;99140.75;;;12.92;80.90
50430;BME280;36359;41.556;-8.418;2023-04-21T04:12:25;99134.19;;;13.29;80.43
50430;BME280;36359;41.556;-8.418;2023-04-21T04:14:51;99138.59;;;13.09;82.82
50430;BME280;36359;41.556;-8.418;2023-04-21T04:17:17;99140.91;;;13.27;80.22
50430;BME280;36359;41.556;-8.418;2023-04-21T04:19:42;99143.66;;;13.12;82.44
50430;BME280;36359;41.556;-8.418;2023-04-21T04:22:09;99134.66;;;13.33;83.22
50430;BME280;36359;41.556;-8.418;2023-04-21T04:24:34;99142.41;;;12.93;83.89
50430;BME280;36359;41.556;-8.418;2023-04-21T04:27:00;99145.94;;;13.30;82.04
50430;BME280;36359;41.556;-8.418;2023-04-21T04:29:28;99135.16;;;13.00;80.67
50430;BME280;36359;41.556;-8.418;2023-04-21T04:31:54;99143.84;;;12.89;82.29
50430;BME280;36359;41.556;-8.418;2023-04-21T04:34:20;99136.38;;;13.19;82.95
50430;BME280;36359;41.556;-8.418;2023-04-21T04:36:47;99137.44;;;13.18;80.51
50430;BME280;36359;41.556;-8.418;2023-04-21T04:39:17;99140.84;;;13.05;80.82
50430;BME280;36359;41.556;-8.418;2023-04-21T04:41:43;99127.91;;;12.86;80.55
50430;BME280;36359;41.556;-8.418;2023-04-21T04:47:30;99124.19;;;12.72;82.56
50430;BME280;36359;41.556;-8.418;2023-04-21T04:49:56;99118.44;;;12.82;81.33
50430;BME280;36359;41.556;-8.418;2023-04-21T04:52:21;99113.97;;;12.74;80.41
50430;BME280;36359;41.556;-8.418;2023-04-21T04:54:47;99116.34;;;12.62;81.36
50430;BME280;36359;41.556;-8.418;2023-04-21T04:57:13;99112.69;;;12.55;82.39
50430;BME280;36359;41.556;-8.418;2023-04-21T04:59:38;99116.88;;;12.72;80.83
50430;BME280;36359;41.556;-8.418;2023-04-21T05:02:06;99110.84;;;12.99;81.55
50430;BME280;36359;41.556;-8.418;2023-04-21T05:04:33;99113.84;;;13.04;79.64
50430;BME280;36359;41.556;-8.418;2023-04-21T05:06:58;99105.28;;;13.07;79.73
50430;BME280;36359;41.556;-8.418;2023-04-21T05:09:24;99109.63;;;12.80;80.14
50430;BME280;36359;41.556;-8.418;2023-04-21T05:11:50;99104.69;;;12.68;80.02
50430;BME280;36359;41.556;-8.418;2023-04-21T05:14:16;99102.31;;;12.44;81.51
50430;BME280;36359;41.556;-8.418;2023-04-21T05:16:44;99098.53;;;12.81;82.78
50430;BME280;36359;41.556;-8.418;2023-04-21T05:19:10;99098.00;;;13.14;80.88
50430;BME280;36359;41.556;-8.418;2023-04-21T05:21:36;99102.81;;;13.12;80.39
50430;BME280;36359;41.556;-8.418;2023-04-21T05:24:01;99098.41;;;12.89;80.39
50430;BME280;36359;41.556;-8.418;2023-04-21T05:26:28;99099.22;;;13.11;79.29
50430;BME280;36359;41.556;-8.418;2023-04-21T05:28:55;99091.91;;;12.90;79.56
50430;BME280;36359;41.556;-8.418;2023-04-21T05:31:21;99101.53;;;12.86;79.34
50430;BME280;36359;41.556;-8.418;2023-04-21T05:33:47;99093.94;;;12.82;80.62
50430;BME280;36359;41.556;-8.418;2023-04-21T05:36:13;99087.91;;;12.65;80.48
50430;BME280;36359;41.556;-8.418;2023-04-21T05:38:39;99088.22;;;12.98;82.64
50430;BME280;36359;41.556;-8.418;2023-04-21T05:41:05;99076.59;;;13.32;81.21
50430;BME280;36359;41.556;-8.418;2023-04-21T05:43:31;99081.00;;;13.33;81.15
50430;BME280;36359;41.556;-8.418;2023-04-21T05:46:01;99082.78;;;12.98;78.69
50430;BME280;36359;41.556;-8.418;2023-04-21T05:48:27;99076.38;;;12.63;79.86
50430;BME280;36359;41.556;-8.418;2023-04-21T05:50:53;99080.69;;;12.36;80.67
50430;BME280;36359;41.556;-8.418;2023-04-21T05:53:20;99081.91;;;12.33;83.03
50430;BME280;36359;41.556;-8.418;2023-04-21T05:55:45;99087.03;;;12.43;85.94
50430;BME280;36359;41.556;-8.418;2023-04-21T05:58:11;99083.44;;;12.79;82.56
50430;BME280;36359;41.556;-8.418;2023-04-21T06:00:37;99088.03;;;12.78;81.99
50430;BME280;36359;41.556;-8.418;2023-04-21T06:03:02;99095.88;;;13.09;80.36
50430;BME280;36359;41.556;-8.418;2023-04-21T06:05:28;99092.88;;;13.04;79.89
50430;BME280;36359;41.556;-8.418;2023-04-21T06:07:54;99087.25;;;12.84;79.47
50430;BME280;36359;41.556;-8.418;2023-04-21T06:10:19;99092.81;;;12.55;80.60
50430;BME280;36359;41.556;-8.418;2023-04-21T06:12:45;99085.16;;;12.43;83.38
50430;BME280;36359;41.556;-8.418;2023-04-21T06:15:11;99095.06;;;12.30;83.04
50430;BME280;36359;41.556;-8.418;2023-04-21T06:17:37;99092.81;;;12.18;83.74
50430;BME280;36359;41.556;-8.418;2023-04-21T06:20:03;99097.13;;;12.27;84.11
50430;BME280;36359;41.556;-8.418;2023-04-21T06:22:28;99102.03;;;12.54;85.87
50430;BME280;36359;41.556;-8.418;2023-04-21T06:24:54;99101.31;;;12.66;84.22
50430;BME280;36359;41.556;-8.418;2023-04-21T06:27:20;99103.03;;;12.53;83.00
50430;BME280;36359;41.556;-8.418;2023-04-21T06:29:45;99098.19;;;12.91;83.73
50430;BME280;36359;41.556;-8.418;2023-04-21T06:32:11;99096.59;;;12.75;81.44
50430;BME280;36359;41.556;-8.418;2023-04-21T06:34:38;99098.91;;;12.78;81.38
50430;BME280;36359;41.556;-8.418;2023-04-21T06:37:04;99098.13;;;12.84;81.53
50430;BME280;36359;41.556;-8.418;2023-04-21T06:39:29;99100.91;;;12.91;81.34
50430;BME280;36359;41.556;-8.418;2023-04-21T06:41:55;99108.38;;;13.04;82.35
50430;BME280;36359;41.556;-8.418;2023-04-21T06:44:25;99092.56;;;13.35;80.33
50430;BME280;36359;41.556;-8.418;2023-04-21T06:46:51;99093.03;;;13.46;79.73
50430;BME280;36359;41.556;-8.418;2023-04-21T06:49:16;99090.84;;;13.34;80.78
50430;BME280;36359;41.556;-8.418;2023-04-21T06:51:42;99092.66;;;13.83;80.58
50430;BME280;36359;41.556;-8.418;2023-04-21T06:54:08;99095.75;;;13.46;79.75
50430;BME280;36359;41.556;-8.418;2023-04-21T06:56:33;99104.09;;;13.37;81.30
50430;BME280;36359;41.556;-8.418;2023-04-21T06:58:59;99084.44;;;13.42;81.49
50430;BME280;36359;41.556;-8.418;2023-04-21T07:01:25;99085.38;;;13.28;80.36
50430;BME280;36359;41.556;-8.418;2023-04-21T07:03:51;99087.75;;;13.37;80.72
50430;BME280;36359;41.556;-8.418;2023-04-21T07:06:17;99077.78;;;13.51;81.08
50430;BME280;36359;41.556;-8.418;2023-04-21T07:08:43;99080.56;;;13.99;80.96
50430;BME280;36359;41.556;-8.418;2023-04-21T07:11:09;99084.13;;;14.00;79.09
50430;BME280;36359;41.556;-8.418;2023-04-21T07:13:35;99087.63;;;13.80;80.42
50430;BME280;36359;41.556;-8.418;2023-04-21T07:16:01;99087.00;;;13.85;79.97
50430;BME280;36359;41.556;-8.418;2023-04-21T07:18:26;99097.50;;;13.88;79.34
50430;BME280;36359;41.556;-8.418;2023-04-21T07:20:52;99095.16;;;13.85;79.65
50430;BME280;36359;41.556;-8.418;2023-04-21T07:23:18;99091.34;;;13.79;80.07
50430;BME280;36359;41.556;-8.418;2023-04-21T07:25:45;99095.94;;;13.72;80.22
50430;BME280;36359;41.556;-8.418;2023-04-21T07:28:17;99084.81;;;13.39;81.46
50430;BME280;36359;41.556;-8.418;2023-04-21T07:30:43;99093.81;;;13.68;80.05
50430;BME280;36359;41.556;-8.418;2023-04-21T07:33:10;99087.63;;;13.87;84.12
50430;BME280;36359;41.556;-8.418;2023-04-21T07:35:36;99083.97;;;14.56;81.05
50430;BME280;36359;41.556;-8.418;2023-04-21T07:38:02;99080.25;;;14.97;78.23
50430;BME280;36359;41.556;-8.418;2023-04-21T07:40:28;99074.81;;;14.29;78.69
50430;BME280;36359;41.556;-8.418;2023-04-21T07:42:55;99077.38;;;13.89;81.24
50430;BME280;36359;41.556;-8.418;2023-04-21T07:45:20;99064.56;;;14.38;82.90
50430;BME280;36359;41.556;-8.418;2023-04-21T07:47:46;99065.13;;;14.74;79.86
50430;BME280;36359;41.556;-8.418;2023-04-21T07:50:12;99056.88;;;15.61;77.06
50430;BME280;36359;41.556;-8.418;2023-04-21T07:52:38;99054.84;;;16.21;74.10
50430;BME280;36359;41.556;-8.418;2023-04-21T07:55:04;99065.03;;;16.46;72.40
50430;BME280;36359;41.556;-8.418;2023-04-21T07:57:29;99051.34;;;15.94;74.03
50430;BME280;36359;41.556;-8.418;2023-04-21T07:59:58;99064.97;;;16.59;72.24
50430;BME280;36359;41.556;-8.418;2023-04-21T08:02:24;99063.38;;;16.83;70.59
50430;BME280;36359;41.556;-8.418;2023-04-21T08:04:50;99059.50;;;16.14;72.33
50430;BME280;36359;41.556;-8.418;2023-04-21T08:07:16;99054.53;;;16.74;71.37
50430;BME280;36359;41.556;-8.418;2023-04-21T08:09:42;99066.22;;;17.20;69.38
50430;BME280;36359;41.556;-8.418;2023-04-21T08:12:07;99064.06;;;17.29;67.05
50430;BME280;36359;41.556;-8.418;2023-04-21T08:14:33;99065.22;;;17.39;67.66
50430;BME280;36359;41.556;-8.418;2023-04-21T08:17:00;99053.06;;;16.78;69.84
50430;BME280;36359;41.556;-8.418;2023-04-21T08:19:29;99055.31;;;16.88;70.04
50430;BME280;36359;41.556;-8.418;2023-04-21T08:21:56;99050.84;;;16.94;69.92
50430;BME280;36359;41.556;-8.418;2023-04-21T08:24:23;99043.28;;;17.21;69.04
50430;BME280;36359;41.556;-8.418;2023-04-21T08:26:49;99038.63;;;17.65;67.22
50430;BME280;36359;41.556;-8.418;2023-04-21T08:29:15;99042.03;;;17.85;66.38
50430;BME280;36359;41.556;-8.418;2023-04-21T08:31:40;99037.44;;;17.98;65.38
50430;BME280;36359;41.556;-8.418;2023-04-21T08:34:06;99029.94;;;17.68;64.79
50430;BME280;36359;41.556;-8.418;2023-04-21T08:36:32;99034.56;;;17.67;65.46
50430;BME280;36359;41.556;-8.418;2023-04-21T08:38:58;99042.84;;;17.86;66.00
50430;BME280;36359;41.556;-8.418;2023-04-21T08:41:25;99037.06;;;18.12;64.49
50430;BME280;36359;41.556;-8.418;2023-04-21T08:43:51;99038.84;;;18.37;63.77
50430;BME280;36359;41.556;-8.418;2023-04-21T08:46:17;99033.72;;;18.41;63.11
50430;BME280;36359;41.556;-8.418;2023-04-21T08:48:45;99031.84;;;18.53;62.50
50430;BME280;36359;41.556;-8.418;2023-04-21T08:51:16;99031.88;;;18.65;60.80
50430;BME280;36359;41.556;-8.418;2023-04-21T08:53:45;99030.53;;;18.55;61.49
50430;BME280;36359;41.556;-8.418;2023-04-21T08:56:10;99030.66;;;18.49;62.07
50430;BME280;36359;41.556;-8.418;2023-04-21T08:58:36;99032.03;;;18.09;63.30
50430;BME280;36359;41.556;-8.418;2023-04-21T09:01:02;99032.91;;;18.22;62.21
50430;BME280;36359;41.556;-8.418;2023-04-21T09:03:29;99025.88;;;18.26;61.92
50430;BME280;36359;41.556;-8.418;2023-04-21T09:05:59;99035.59;;;18.70;61.88
50430;BME280;36359;41.556;-8.418;2023-04-21T09:08:25;99041.91;;;18.89;61.03
50430;BME280;36359;41.556;-8.418;2023-04-21T09:10:55;99032.00;;;19.00;59.51
50430;BME280;36359;41.556;-8.418;2023-04-21T09:13:29;99030.09;;;18.89;60.12
50430;BME280;36359;41.556;-8.418;2023-04-21T09:15:57;99042.78;;;19.01;60.18
50430;BME280;36359;41.556;-8.418;2023-04-21T09:18:26;99041.81;;;18.96;59.82
50430;BME280;36359;41.556;-8.418;2023-04-21T09:23:45;99033.69;;;18.89;58.61
50430;BME280;36359;41.556;-8.418;2023-04-21T09:26:12;99023.22;;;18.79;59.80
50430;BME280;36359;41.556;-8.418;2023-04-21T09:28:42;99027.13;;;19.14;59.23
50430;BME280;36359;41.556;-8.418;2023-04-21T09:31:22;99020.19;;;19.11;56.71
50430;BME280;36359;41.556;-8.418;2023-04-21T09:33:55;99028.69;;;18.98;59.45
50430;BME280;36359;41.556;-8.418;2023-04-21T09:36:24;99033.94;;;19.11;58.66
50430;BME280;36359;41.556;-8.418;2023-04-21T09:41:19;99028.72;;;19.21;57.00
50430;BME280;36359;41.556;-8.418;2023-04-21T09:43:46;99026.91;;;19.15;58.42
50430;BME280;36359;41.556;-8.418;2023-04-21T09:46:15;99031.44;;;19.10;57.98
50430;BME280;36359;41.556;-8.418;2023-04-21T09:48:43;99031.19;;;19.11;58.56
50430;BME280;36359;41.556;-8.418;2023-04-21T09:51:11;99038.25;;;19.07;57.03
50430;BME280;36359;41.556;-8.418;2023-04-21T09:53:39;99043.50;;;19.20;58.72
50430;BME280;36359;41.556;-8.418;2023-04-21T09:56:16;99049.41;;;19.24;58.02
50430;BME280;36359;41.556;-8.418;2023-04-21T09:58:46;99039.34;;;19.18;58.65
50430;BME280;36359;41.556;-8.418;2023-04-21T10:01:13;99047.97;;;19.21;59.21
50430;BME280;36359;41.556;-8.418;2023-04-21T10:03:41;99052.22;;;19.05;59.95
50430;BME280;36359;41.556;-8.418;2023-04-21T10:06:08;99047.59;;;19.06;60.56
50430;BME280;36359;41.556;-8.418;2023-04-21T10:08:35;99054.38;;;19.03;60.70
50430;BME280;36359;41.556;-8.418;2023-04-21T10:11:02;99054.81;;;18.89;63.82
50430;BME280;36359;41.556;-8.418;2023-04-21T10:13:29;99060.66;;;18.80;61.83
50430;BME280;36359;41.556;-8.418;2023-04-21T10:16:07;99066.28;;;18.86;62.03
50430;BME280;36359;41.556;-8.418;2023-04-21T10:18:35;99073.78;;;18.78;63.01
50430;BME280;36359;41.556;-8.418;2023-04-21T10:23:40;99061.53;;;18.63;63.84
50430;BME280;36359;41.556;-8.418;2023-04-21T10:34:14;99075.75;;;18.71;64.62
50430;BME280;36359;41.556;-8.418;2023-04-21T10:39:33;99083.09;;;18.77;64.15
50430;BME280;36359;41.556;-8.418;2023-04-21T10:44:49;99074.25;;;18.75;65.31
50430;BME280;36359;41.556;-8.418;2023-04-21T10:49:58;99070.03;;;18.43;66.91
50430;BME280;36359;41.556;-8.418;2023-04-21T10:52:32;99088.81;;;18.09;71.22
50430;BME280;36359;41.556;-8.418;2023-04-21T10:57:33;99102.84;;;18.19;72.29
50430;BME280;36359;41.556;-8.418;2023-04-21T10:59:59;99114.31;;;17.91;75.04
50430;BME280;36359;41.556;-8.418;2023-04-21T11:02:25;99102.84;;;17.76;73.93
50430;BME280;36359;41.556;-8.418;2023-04-21T11:05:11;99109.84;;;17.97;72.65
50430;BME280;36359;41.556;-8.418;2023-04-21T11:07:38;99122.34;;;17.92;73.41
50430;BME280;36359;41.556;-8.418;2023-04-21T11:10:09;99127.00;;;17.67;76.61
50430;BME280;36359;41.556;-8.418;2023-04-21T11:12:37;99116.41;;;17.96;72.48
50430;BME280;36359;41.556;-8.418;2023-04-21T11:15:06;99117.84;;;18.35;70.90
50430;BME280;36359;41.556;-8.418;2023-04-21T11:17:33;99113.88;;;18.49;70.59
50430;BME280;36359;41.556;-8.418;2023-04-21T11:20:01;99113.78;;;18.56;69.44
50430;BME280;36359;41.556;-8.418;2023-04-21T11:22:29;99113.91;;;18.79;68.53
50430;BME280;36359;41.556;-8.418;2023-04-21T11:24:56;99110.59;;;18.77;69.52
50430;BME280;36359;41.556;-8.418;2023-04-21T11:27:25;99104.19;;;18.47;72.05
50430;BME280;36359;41.556;-8.418;2023-04-21T11:29:51;99104.94;;;18.54;70.97
50430;BME280;36359;41.556;-8.418;2023-04-21T11:32:17;99102.16;;;18.42;72.27
50430;BME280;36359;41.556;-8.418;2023-04-21T11:34:43;99109.97;;;18.57;72.32
50430;BME280;36359;41.556;-8.418;2023-04-21T11:37:14;99102.88;;;18.49;71.79
50430;BME280;36359;41.556;-8.418;2023-04-21T11:39:40;99105.31;;;18.57;71.95
50430;BME280;36359;41.556;-8.418;2023-04-21T11:42:09;99106.63;;;18.55;72.81
50430;BME280;36359;41.556;-8.418;2023-04-21T11:44:40;99110.59;;;18.41;78.45
50430;BME280;36359;41.556;-8.418;2023-04-21T11:47:21;99107.84;;;18.59;73.18
50430;BME280;36359;41.556;-8.418;2023-04-21T11:52:25;99110.25;;;18.67;73.62
50430;BME280;36359;41.556;-8.418;2023-04-21T11:55:02;99118.63;;;18.72;73.29
50430;BME280;36359;41.556;-8.418;2023-04-21T11:57:29;99113.78;;;18.56;74.27
50430;BME280;36359;41.556;-8.418;2023-04-21T12:00:00;99112.72;;;18.57;74.65
50430;BME280;36359;41.556;-8.418;2023-04-21T12:02:28;99111.75;;;18.51;76.69
50430;BME280;36359;41.556;-8.418;2023-04-21T12:05:01;99114.94;;;17.93;81.24
50430;BME280;36359;41.556;-8.418;2023-04-21T12:07:31;99112.41;;;17.48;83.16
50430;BME280;36359;41.556;-8.418;2023-04-21T12:09:59;99108.81;;;17.22;84.85
50430;BME280;36359;41.556;-8.418;2023-04-21T12:12:25;99105.94;;;17.11;85.64
50430;BME280;36359;41.556;-8.418;2023-04-21T12:14:51;99095.69;;;16.99;85.29
50430;BME280;36359;41.556;-8.418;2023-04-21T12:17:17;99081.72;;;16.76;86.58
50430;BME280;36359;41.556;-8.418;2023-04-21T12:19:44;99073.09;;;16.34;90.58
50430;BME280;36359;41.556;-8.418;2023-04-21T12:22:15;99064.44;;;15.92;96.67
50430;BME280;36359;41.556;-8.418;2023-04-21T12:24:43;99063.06;;;16.15;95.02
50430;BME280;36359;41.556;-8.418;2023-04-21T12:27:09;99037.44;;;16.02;97.95
50430;BME280;36359;41.556;-8.418;2023-04-21T12:29:35;99043.88;;;15.56;100.00
50430;BME280;36359;41.556;-8.418;2023-04-21T12:32:06;99030.25;;;15.36;100.00
50430;BME280;36359;41.556;-8.418;2023-04-21T12:34:33;99024.75;;;15.43;100.00
50430;BME280;36359;41.556;-8.418;2023-04-21T12:36:58;99018.41;;;15.56;100.00
50430;BME280;36359;41.556;-8.418;2023-04-21T12:39:25;99003.91;;;15.69;98.39
50430;BME280;36359;41.556;-8.418;2023-04-21T12:41:51;99007.94;;;15.39;100.00
50430;BME280;36359;41.556;-8.418;2023-04-21T12:44:16;99019.06;;;15.51;100.00
50430;BME280;36359;41.556;-8.418;2023-04-21T12:46:42;99018.22;;;15.51;100.00
50430;BME280;36359;41.556;-8.418;2023-04-21T12:49:08;99021.13;;;15.56;100.00
50430;BME280;36359;41.556;-8.418;2023-04-21T12:51:35;99020.75;;;15.59;100.00
50430;BME280;36359;41.556;-8.418;2023-04-21T12:54:01;99029.56;;;15.67;100.00
50430;BME280;36359;41.556;-8.418;2023-04-21T12:56:26;99024.31;;;15.59;100.00
50430;BME280;36359;41.556;-8.418;2023-04-21T12:58:52;99020.69;;;15.79;100.00
50430;BME280;36359;41.556;-8.418;2023-04-21T13:01:20;99025.19;;;16.11;96.15
50430;BME280;36359;41.556;-8.418;2023-04-21T13:03:46;99025.19;;;16.11;98.28
50430;BME280;36359;41.556;-8.418;2023-04-21T13:06:12;99015.56;;;16.02;100.00
50430;BME280;36359;41.556;-8.418;2023-04-21T13:08:37;99010.50;;;15.99;99.62
50430;BME280;36359;41.556;-8.418;2023-04-21T13:11:03;99017.25;;;15.97;100.00
50430;BME280;36359;41.556;-8.418;2023-04-21T13:13:30;99017.28;;;15.90;100.00
50430;BME280;36359;41.556;-8.418;2023-04-21T13:15:56;99024.16;;;16.06;99.41
50430;BME280;36359;41.556;-8.418;2023-04-21T13:18:21;99028.16;;;16.10;98.28
50430;BME280;36359;41.556;-8.418;2023-04-21T13:20:47;99022.31;;;15.93;100.00
50430;BME280;36359;41.556;-8.418;2023-04-21T13:23:13;99027.78;;;15.93;100.00
50430;BME280;36359;41.556;-8.418;2023-04-21T13:25:40;99038.38;;;15.83;100.00
50430;BME280;36359;41.556;-8.418;2023-04-21T13:28:06;99037.56;;;15.49;100.00
50430;BME280;36359;41.556;-8.418;2023-04-21T13:30:33;99035.06;;;15.28;100.00